»·PEaware :: AAL1524 KSFO-KPDX

AAL1524 :: KSFO-KPDX

FLIGHT INFORMATION

Flight Status: Arrived
Operator:
American Airlines
More flights by this operator :: More flights under this callsign
Pilot: Matteo Spacca (9898)
Aircraft: BOEING 757-200
(B752)
More flights by this aircraft type
Origin: KSFO San Francisco Intl
United States
Destination: KPDX Portland Intl
United States
More flights between these airports :: More routes between these airports
Route: TRUKN2 GRTFL MACHU TMBRS2
File this flight plan on PilotEdge
Remarks:
Altitude:
(Current/Filed)
36,000ft
Speed:
(Current/Filed)
460kts
Departed: 09-Jan-17 10:48 AM
Arrived: 09-Jan-17 12:09 PM
Distance/Time
Traveled:
479nm/1:21
Distance/Time
To Go:
Arrived

Flight Plot

Page will automatically refresh every two minutes.


Map Options




Map Legend


Flown Route
Filed Route
Departure Airport
Arrival Airport
Navaid (VOR, NDB)
Fix

Horizontal Profiles

Position Reports

Time Latitude Longitude Heading Altitude Ground
Speed
09-Jan-17 10:30 37.617754 -122.382900 135 34ft 0kts
09-Jan-17 10:31 37.617754 -122.382900 135 34ft 0kts
09-Jan-17 10:32 37.617754 -122.382900 135 34ft 0kts
09-Jan-17 10:33 37.617754 -122.382900 135 34ft 0kts
09-Jan-17 10:34 37.617754 -122.382900 135 34ft 0kts
09-Jan-17 10:35 37.617754 -122.382900 135 34ft 0kts
09-Jan-17 10:36 37.617754 -122.382900 135 34ft 0kts
09-Jan-17 10:37 37.617754 -122.382900 135 34ft 0kts
09-Jan-17 10:38 37.617751 -122.382896 135 34ft 0kts
09-Jan-17 10:39 37.618125 -122.383249 126 34ft 1kts
09-Jan-17 10:40 37.618082 -122.383455 24 34ft 0kts
09-Jan-17 10:41 37.618082 -122.383455 24 34ft 0kts
09-Jan-17 10:42 37.618400 -122.383272 25 34ft 7kts
09-Jan-17 10:43 37.618856 -122.380265 134 34ft 12kts
09-Jan-17 10:44 37.614790 -122.380801 206 34ft 17kts
09-Jan-17 10:45 37.611740 -122.382874 209 34ft 15kts
09-Jan-17 10:46 37.609139 -122.383540 123 34ft 0kts
09-Jan-17 10:47 37.608848 -122.382926 111 34ft 10kts
09-Jan-17 10:48 37.626355 -122.370673 27 200ft 167kts
09-Jan-17 10:49 37.660214 -122.323648 56 2277ft 222kts
09-Jan-17 10:50 37.701785 -122.247798 57 4886ft 292kts
09-Jan-17 10:51 37.773086 -122.217779 352 8508ft 292kts
09-Jan-17 10:52 37.857881 -122.219168 351 11231ft 333kts
09-Jan-17 10:53 37.951571 -122.221508 350 14476ft 346kts
09-Jan-17 10:54 38.049338 -122.224030 349 17285ft 359kts
09-Jan-17 10:55 38.149552 -122.227074 348 19775ft 370kts
09-Jan-17 10:56 38.253558 -122.229606 347 22014ft 381kts
09-Jan-17 10:57 38.360365 -122.232781 344 23985ft 388kts
09-Jan-17 10:58 38.468693 -122.244409 343 25667ft 398kts
09-Jan-17 10:59 38.580628 -122.255950 344 27192ft 410kts
09-Jan-17 11:00 38.695518 -122.267839 344 28531ft 422kts
09-Jan-17 11:01 38.813552 -122.280139 344 29801ft 432kts
09-Jan-17 11:02 38.932644 -122.293078 344 31357ft 430kts
09-Jan-17 11:03 39.051514 -122.305418 343 32727ft 430kts
09-Jan-17 11:04 39.169670 -122.317736 344 33956ft 429kts
09-Jan-17 11:05 39.288002 -122.330161 343 35168ft 425kts
09-Jan-17 11:06 39.404779 -122.342758 343 36077ft 425kts
09-Jan-17 11:07 39.525404 -122.355580 344 36054ft 447kts
09-Jan-17 11:08 39.651631 -122.369104 344 36053ft 467kts
09-Jan-17 11:09 39.780764 -122.382927 344 36043ft 468kts
09-Jan-17 11:10 39.910347 -122.396915 345 35991ft 468kts
09-Jan-17 11:11 40.039620 -122.410933 344 35990ft 468kts
09-Jan-17 11:12 40.168250 -122.425086 345 35985ft 469kts
09-Jan-17 11:13 40.297602 -122.439073 345 35959ft 468kts
09-Jan-17 11:14 40.427191 -122.453653 345 35959ft 469kts
09-Jan-17 11:15 40.556556 -122.467558 345 35960ft 469kts
09-Jan-17 11:16 40.685730 -122.482208 345 35960ft 468kts
09-Jan-17 11:17 40.815403 -122.496739 345 35960ft 468kts
09-Jan-17 11:18 40.944364 -122.511602 345 35960ft 469kts
09-Jan-17 11:19 41.074036 -122.527345 344 35889ft 469kts
09-Jan-17 11:20 41.200499 -122.541985 345 35876ft 470kts
09-Jan-17 11:21 41.330572 -122.555517 346 35876ft 471kts
09-Jan-17 11:22 41.460532 -122.568827 345 35851ft 470kts
09-Jan-17 11:23 41.590606 -122.580641 347 35851ft 473kts
09-Jan-17 11:24 41.721886 -122.589602 347 35851ft 473kts
09-Jan-17 11:25 41.852626 -122.598403 347 35897ft 467kts
09-Jan-17 11:26 41.980870 -122.606947 347 35904ft 463kts
09-Jan-17 11:27 42.108559 -122.614889 347 35904ft 463kts
09-Jan-17 11:28 42.237103 -122.623449 347 35902ft 463kts
09-Jan-17 11:29 42.365101 -122.632397 347 35903ft 463kts
09-Jan-17 11:30 42.493810 -122.640828 348 35903ft 465kts
09-Jan-17 11:31 42.622407 -122.648724 347 35903ft 465kts
09-Jan-17 11:32 42.750539 -122.657175 347 35919ft 463kts
09-Jan-17 11:33 42.878906 -122.665858 347 35893ft 463kts
09-Jan-17 11:34 43.007051 -122.674593 347 35893ft 464kts
09-Jan-17 11:35 43.134731 -122.683327 347 35889ft 464kts
09-Jan-17 11:36 43.263342 -122.692654 347 35889ft 464kts
09-Jan-17 11:37 43.392037 -122.701670 347 35890ft 465kts
09-Jan-17 11:38 43.521104 -122.710064 347 35890ft 465kts
09-Jan-17 11:39 43.649447 -122.718850 347 35855ft 465kts
09-Jan-17 11:40 43.776073 -122.727578 347 35332ft 447kts
09-Jan-17 11:41 43.900253 -122.736320 347 33435ft 453kts
09-Jan-17 11:42 44.026198 -122.745318 346 31314ft 457kts
09-Jan-17 11:43 44.150870 -122.753240 352 29228ft 468kts
09-Jan-17 11:44 44.279754 -122.741128 354 27066ft 462kts
09-Jan-17 11:45 44.405915 -122.728851 354 24898ft 452kts
09-Jan-17 11:46 44.527611 -122.717772 353 22665ft 417kts
09-Jan-17 11:47 44.637551 -122.706011 354 20622ft 389kts
09-Jan-17 11:48 44.744832 -122.694973 355 18629ft 387kts
09-Jan-17 11:49 44.849432 -122.685095 355 16434ft 369kts
09-Jan-17 11:50 44.948106 -122.674570 356 14357ft 353kts
09-Jan-17 11:51 45.043483 -122.664773 357 12342ft 330kts
09-Jan-17 11:52 45.132058 -122.655816 358 10744ft 326kts
09-Jan-17 11:53 45.219324 -122.646894 359 9112ft 307kts
09-Jan-17 11:54 45.299747 -122.671172 334 7758ft 290kts
09-Jan-17 11:55 45.371954 -122.710305 334 6883ft 274kts
09-Jan-17 11:56 45.442031 -122.748754 335 5967ft 267kts
09-Jan-17 11:57 45.510513 -122.786443 335 4996ft 261kts
09-Jan-17 11:58 45.571601 -122.820508 326 4957ft 218kts
09-Jan-17 11:59 45.602570 -122.890277 294 5002ft 208kts
09-Jan-17 12:00 45.629451 -122.964253 295 4969ft 209kts
09-Jan-17 12:01 45.663768 -123.028874 345 4658ft 222kts
09-Jan-17 12:02 45.708600 -122.978268 77 3914ft 234kts
09-Jan-17 12:03 45.699568 -122.893242 117 3197ft 212kts
09-Jan-17 12:04 45.671431 -122.818391 120 3123ft 198kts
09-Jan-17 12:05 45.646038 -122.752474 121 2094ft 172kts
09-Jan-17 12:06 45.626123 -122.701039 122 1298ft 131kts
09-Jan-17 12:07 45.609166 -122.657387 121 641ft 122kts
09-Jan-17 12:08 45.593004 -122.615928 120 29ft 110kts
09-Jan-17 12:09 45.587838 -122.601676 97 25ft 1kts
09-Jan-17 12:10 45.588789 -122.599784 310 26ft 11kts
09-Jan-17 12:11 45.591348 -122.599976 77 28ft 15kts
09-Jan-17 12:12 45.592426 -122.596339 193 29ft 12kts

Navigation Log

Ident Type
1. KSFO Airport
2. KPDX Airport